sensor_id;sensor_type;location;lat;lon;timestamp;temperature;humidity
49777;DHT22;35673;51.482;7.436;2023-02-28T00:00:10;2.00;76.00
49777;DHT22;35673;51.482;7.436;2023-02-28T00:02:36;2.00;76.10
49777;DHT22;35673;51.482;7.436;2023-02-28T00:05:02;2.00;76.30
49777;DHT22;35673;51.482;7.436;2023-02-28T00:07:29;2.00;76.20
49777;DHT22;35673;51.482;7.436;2023-02-28T00:09:54;1.90;76.30
49777;DHT22;35673;51.482;7.436;2023-02-28T00:12:20;1.90;76.50
49777;DHT22;35673;51.482;7.436;2023-02-28T00:14:45;1.90;76.50
49777;DHT22;35673;51.482;7.436;2023-02-28T00:17:11;1.90;76.80
49777;DHT22;35673;51.482;7.436;2023-02-28T00:19:36;1.80;76.50
49777;DHT22;35673;51.482;7.436;2023-02-28T00:22:02;1.80;76.80
49777;DHT22;35673;51.482;7.436;2023-02-28T00:24:27;1.80;76.80
49777;DHT22;35673;51.482;7.436;2023-02-28T00:26:53;1.80;77.00
49777;DHT22;35673;51.482;7.436;2023-02-28T00:29:18;1.80;77.10
49777;DHT22;35673;51.482;7.436;2023-02-28T00:31:43;1.80;77.10
49777;DHT22;35673;51.482;7.436;2023-02-28T00:34:09;1.80;77.30
49777;DHT22;35673;51.482;7.436;2023-02-28T00:36:34;1.80;77.40
49777;DHT22;35673;51.482;7.436;2023-02-28T00:39:00;1.80;77.20
49777;DHT22;35673;51.482;7.436;2023-02-28T00:41:25;1.70;77.50
49777;DHT22;35673;51.482;7.436;2023-02-28T00:43:51;1.70;77.60
49777;DHT22;35673;51.482;7.436;2023-02-28T00:46:16;1.70;77.50
49777;DHT22;35673;51.482;7.436;2023-02-28T00:48:42;1.70;77.60
49777;DHT22;35673;51.482;7.436;2023-02-28T00:51:07;1.70;77.50
49777;DHT22;35673;51.482;7.436;2023-02-28T00:53:33;1.60;77.60
49777;DHT22;35673;51.482;7.436;2023-02-28T00:55:58;1.60;77.60
49777;DHT22;35673;51.482;7.436;2023-02-28T00:58:24;1.60;77.90
49777;DHT22;35673;51.482;7.436;2023-02-28T01:00:50;1.50;78.10
49777;DHT22;35673;51.482;7.436;2023-02-28T01:03:16;1.50;78.20
49777;DHT22;35673;51.482;7.436;2023-02-28T01:05:42;1.50;78.30
49777;DHT22;35673;51.482;7.436;2023-02-28T01:08:07;1.50;78.30
49777;DHT22;35673;51.482;7.436;2023-02-28T01:10:32;1.40;78.50
49777;DHT22;35673;51.482;7.436;2023-02-28T01:12:58;1.40;78.60
49777;DHT22;35673;51.482;7.436;2023-02-28T01:15:24;1.40;78.80
49777;DHT22;35673;51.482;7.436;2023-02-28T01:17:49;1.30;79.00
49777;DHT22;35673;51.482;7.436;2023-02-28T01:20:15;1.30;78.90
49777;DHT22;35673;51.482;7.436;2023-02-28T01:22:40;1.30;78.90
49777;DHT22;35673;51.482;7.436;2023-02-28T01:25:06;1.30;79.10
49777;DHT22;35673;51.482;7.436;2023-02-28T01:27:32;1.30;79.00
49777;DHT22;35673;51.482;7.436;2023-02-28T01:29:58;1.30;79.40
49777;DHT22;35673;51.482;7.436;2023-02-28T01:32:24;1.30;79.20
49777;DHT22;35673;51.482;7.436;2023-02-28T01:34:49;1.20;79.30
49777;DHT22;35673;51.482;7.436;2023-02-28T01:37:15;1.20;79.30
49777;DHT22;35673;51.482;7.436;2023-02-28T01:39:40;1.20;79.40
49777;DHT22;35673;51.482;7.436;2023-02-28T01:42:07;1.20;79.60
49777;DHT22;35673;51.482;7.436;2023-02-28T01:47:17;1.10;79.80
49777;DHT22;35673;51.482;7.436;2023-02-28T01:49:43;1.10;80.30
49777;DHT22;35673;51.482;7.436;2023-02-28T01:52:08;1.10;80.00
49777;DHT22;35673;51.482;7.436;2023-02-28T01:54:43;1.10;80.10
49777;DHT22;35673;51.482;7.436;2023-02-28T01:57:11;1.10;80.10
49777;DHT22;35673;51.482;7.436;2023-02-28T01:59:43;1.00;80.10
49777;DHT22;35673;51.482;7.436;2023-02-28T02:02:13;1.00;80.20
49777;DHT22;35673;51.482;7.436;2023-02-28T02:04:41;0.90;80.30
49777;DHT22;35673;51.482;7.436;2023-02-28T02:07:09;1.00;80.40
49777;DHT22;35673;51.482;7.436;2023-02-28T02:09:35;0.90;80.50
49777;DHT22;35673;51.482;7.436;2023-02-28T02:12:02;0.90;80.30
49777;DHT22;35673;51.482;7.436;2023-02-28T02:34:51;0.70;81.20
49777;DHT22;35673;51.482;7.436;2023-02-28T02:39:59;0.60;81.50
49777;DHT22;35673;51.482;7.436;2023-02-28T02:42:35;0.60;81.50
49777;DHT22;35673;51.482;7.436;2023-02-28T02:45:07;0.60;81.20
49777;DHT22;35673;51.482;7.436;2023-02-28T02:47:34;0.60;80.90
49777;DHT22;35673;51.482;7.436;2023-02-28T02:50:02;0.60;80.80
49777;DHT22;35673;51.482;7.436;2023-02-28T02:52:32;0.60;80.90
49777;DHT22;35673;51.482;7.436;2023-02-28T02:54:58;0.60;81.00
49777;DHT22;35673;51.482;7.436;2023-02-28T02:57:35;0.50;81.00
49777;DHT22;35673;51.482;7.436;2023-02-28T03:00:03;0.50;81.30
49777;DHT22;35673;51.482;7.436;2023-02-28T03:02:30;0.50;81.30
49777;DHT22;35673;51.482;7.436;2023-02-28T03:05:00;0.50;81.30
49777;DHT22;35673;51.482;7.436;2023-02-28T03:07:26;0.50;81.10
49777;DHT22;35673;51.482;7.436;2023-02-28T03:09:53;0.50;81.30
49777;DHT22;35673;51.482;7.436;2023-02-28T03:12:19;0.50;81.10
49777;DHT22;35673;51.482;7.436;2023-02-28T03:14:51;0.50;81.20
49777;DHT22;35673;51.482;7.436;2023-02-28T03:20:01;0.40;81.20
49777;DHT22;35673;51.482;7.436;2023-02-28T03:27:29;0.40;80.90
49777;DHT22;35673;51.482;7.436;2023-02-28T03:32:22;0.40;81.30
49777;DHT22;35673;51.482;7.436;2023-02-28T03:35:36;0.40;81.40
49777;DHT22;35673;51.482;7.436;2023-02-28T03:37:35;0.40;81.40
49777;DHT22;35673;51.482;7.436;2023-02-28T03:40:04;0.40;81.10
49777;DHT22;35673;51.482;7.436;2023-02-28T03:42:32;0.40;81.00
49777;DHT22;35673;51.482;7.436;2023-02-28T03:45:00;0.30;81.10
49777;DHT22;35673;51.482;7.436;2023-02-28T03:47:35;0.30;81.80
49777;DHT22;35673;51.482;7.436;2023-02-28T03:50:07;0.30;81.20
49777;DHT22;35673;51.482;7.436;2023-02-28T03:52:35;0.30;81.40
49777;DHT22;35673;51.482;7.436;2023-02-28T03:55:02;0.30;81.50
49777;DHT22;35673;51.482;7.436;2023-02-28T03:57:39;0.30;81.50
49777;DHT22;35673;51.482;7.436;2023-02-28T04:00:06;0.20;81.30
49777;DHT22;35673;51.482;7.436;2023-02-28T04:02:32;0.20;81.50
49777;DHT22;35673;51.482;7.436;2023-02-28T04:04:59;0.10;81.40
49777;DHT22;35673;51.482;7.436;2023-02-28T04:07:29;0.10;81.80
49777;DHT22;35673;51.482;7.436;2023-02-28T04:09:55;0.20;81.80
49777;DHT22;35673;51.482;7.436;2023-02-28T04:12:20;0.10;81.50
49777;DHT22;35673;51.482;7.436;2023-02-28T04:14:48;0.10;81.50
49777;DHT22;35673;51.482;7.436;2023-02-28T04:17:14;0.10;81.40
49777;DHT22;35673;51.482;7.436;2023-02-28T04:19:39;0.10;81.50
49777;DHT22;35673;51.482;7.436;2023-02-28T04:22:04;0.10;81.40
49777;DHT22;35673;51.482;7.436;2023-02-28T04:24:30;0.10;81.50
49777;DHT22;35673;51.482;7.436;2023-02-28T04:26:56;0.10;81.40
49777;DHT22;35673;51.482;7.436;2023-02-28T04:29:29;0.10;81.30
49777;DHT22;35673;51.482;7.436;2023-02-28T04:31:55;0.10;81.30
49777;DHT22;35673;51.482;7.436;2023-02-28T04:34:23;0.10;81.20
49777;DHT22;35673;51.482;7.436;2023-02-28T04:36:49;0.10;81.30
49777;DHT22;35673;51.482;7.436;2023-02-28T04:39:16;0.10;81.40
49777;DHT22;35673;51.482;7.436;2023-02-28T04:41:44;0.00;81.20
49777;DHT22;35673;51.482;7.436;2023-02-28T04:44:09;0.00;81.40
49777;DHT22;35673;51.482;7.436;2023-02-28T04:46:34;0.00;81.50
49777;DHT22;35673;51.482;7.436;2023-02-28T04:49:00;0.00;81.40
49777;DHT22;35673;51.482;7.436;2023-02-28T04:51:25;0.00;81.40
49777;DHT22;35673;51.482;7.436;2023-02-28T04:53:51;-0.10;81.30
49777;DHT22;35673;51.482;7.436;2023-02-28T04:56:17;-0.10;81.50
49777;DHT22;35673;51.482;7.436;2023-02-28T04:58:43;-0.10;81.30
49777;DHT22;35673;51.482;7.436;2023-02-28T05:01:16;-0.10;81.60
49777;DHT22;35673;51.482;7.436;2023-02-28T05:03:42;-0.10;81.60
49777;DHT22;35673;51.482;7.436;2023-02-28T05:06:08;-0.20;81.60
49777;DHT22;35673;51.482;7.436;2023-02-28T05:08:34;-0.20;81.80
49777;DHT22;35673;51.482;7.436;2023-02-28T05:11:00;-0.20;82.00
49777;DHT22;35673;51.482;7.436;2023-02-28T05:13:28;-0.20;82.10
49777;DHT22;35673;51.482;7.436;2023-02-28T05:15:54;-0.30;82.00
49777;DHT22;35673;51.482;7.436;2023-02-28T05:18:19;-0.30;82.10
49777;DHT22;35673;51.482;7.436;2023-02-28T05:20:45;-0.30;82.30
49777;DHT22;35673;51.482;7.436;2023-02-28T05:23:11;-0.30;82.60
49777;DHT22;35673;51.482;7.436;2023-02-28T05:25:38;-0.30;82.70
49777;DHT22;35673;51.482;7.436;2023-02-28T05:28:03;-0.30;82.70
49777;DHT22;35673;51.482;7.436;2023-02-28T05:30:29;-0.30;82.80
49777;DHT22;35673;51.482;7.436;2023-02-28T05:32:55;-0.30;82.80
49777;DHT22;35673;51.482;7.436;2023-02-28T05:35:20;-0.40;83.00
49777;DHT22;35673;51.482;7.436;2023-02-28T05:37:46;-0.40;83.30
49777;DHT22;35673;51.482;7.436;2023-02-28T05:40:11;-0.40;83.10
49777;DHT22;35673;51.482;7.436;2023-02-28T05:42:37;-0.40;83.50
49777;DHT22;35673;51.482;7.436;2023-02-28T05:45:03;-0.40;83.70
49777;DHT22;35673;51.482;7.436;2023-02-28T05:47:29;-0.40;83.80
49777;DHT22;35673;51.482;7.436;2023-02-28T05:49:54;-0.50;84.10
49777;DHT22;35673;51.482;7.436;2023-02-28T05:52:20;-0.50;83.80
49777;DHT22;35673;51.482;7.436;2023-02-28T05:54:46;-0.50;84.00
49777;DHT22;35673;51.482;7.436;2023-02-28T05:57:11;-0.40;83.60
49777;DHT22;35673;51.482;7.436;2023-02-28T05:59:37;-0.50;83.80
49777;DHT22;35673;51.482;7.436;2023-02-28T06:02:10;-0.50;84.00
49777;DHT22;35673;51.482;7.436;2023-02-28T06:04:37;-0.60;83.90
49777;DHT22;35673;51.482;7.436;2023-02-28T06:07:02;-0.60;84.20
49777;DHT22;35673;51.482;7.436;2023-02-28T06:09:28;-0.60;84.20
49777;DHT22;35673;51.482;7.436;2023-02-28T06:11:54;-0.60;84.20
49777;DHT22;35673;51.482;7.436;2023-02-28T06:14:20;-0.60;84.80
49777;DHT22;35673;51.482;7.436;2023-02-28T06:16:45;-0.60;84.50
49777;DHT22;35673;51.482;7.436;2023-02-28T06:19:11;-0.60;84.40
49777;DHT22;35673;51.482;7.436;2023-02-28T06:21:38;-0.70;84.50
49777;DHT22;35673;51.482;7.436;2023-02-28T06:24:03;-0.70;84.80
49777;DHT22;35673;51.482;7.436;2023-02-28T06:26:29;-0.70;85.10
49777;DHT22;35673;51.482;7.436;2023-02-28T06:28:55;-0.70;84.80
49777;DHT22;35673;51.482;7.436;2023-02-28T06:31:21;-0.70;85.10
49777;DHT22;35673;51.482;7.436;2023-02-28T06:33:47;-0.60;85.30
49777;DHT22;35673;51.482;7.436;2023-02-28T06:36:13;-0.60;85.30
49777;DHT22;35673;51.482;7.436;2023-02-28T06:38:39;-0.70;84.90
49777;DHT22;35673;51.482;7.436;2023-02-28T06:41:05;-0.70;85.00
49777;DHT22;35673;51.482;7.436;2023-02-28T06:43:31;-0.70;85.10
49777;DHT22;35673;51.482;7.436;2023-02-28T06:45:58;-0.70;85.00
49777;DHT22;35673;51.482;7.436;2023-02-28T06:48:24;-0.70;85.60
49777;DHT22;35673;51.482;7.436;2023-02-28T06:50:49;-0.70;85.50
49777;DHT22;35673;51.482;7.436;2023-02-28T06:53:15;-0.70;85.30
49777;DHT22;35673;51.482;7.436;2023-02-28T06:55:40;-0.70;85.80
49777;DHT22;35673;51.482;7.436;2023-02-28T06:58:06;-0.70;85.50
49777;DHT22;35673;51.482;7.436;2023-02-28T07:00:43;-0.70;85.90
49777;DHT22;35673;51.482;7.436;2023-02-28T07:03:09;-0.70;85.80
49777;DHT22;35673;51.482;7.436;2023-02-28T07:05:38;-0.70;86.00
49777;DHT22;35673;51.482;7.436;2023-02-28T07:08:04;-0.60;86.10
49777;DHT22;35673;51.482;7.436;2023-02-28T07:10:31;-0.60;86.00
49777;DHT22;35673;51.482;7.436;2023-02-28T07:12:58;-0.50;85.90
49777;DHT22;35673;51.482;7.436;2023-02-28T07:15:23;-0.50;85.60
49777;DHT22;35673;51.482;7.436;2023-02-28T07:17:49;-0.40;85.70
49777;DHT22;35673;51.482;7.436;2023-02-28T07:20:14;-0.30;85.60
49777;DHT22;35673;51.482;7.436;2023-02-28T07:22:39;-0.30;84.70
49777;DHT22;35673;51.482;7.436;2023-02-28T07:25:05;-0.30;84.60
49777;DHT22;35673;51.482;7.436;2023-02-28T07:27:31;-0.20;84.20
49777;DHT22;35673;51.482;7.436;2023-02-28T07:29:56;-0.20;84.10
49777;DHT22;35673;51.482;7.436;2023-02-28T07:32:22;-0.20;84.20
49777;DHT22;35673;51.482;7.436;2023-02-28T07:34:48;-0.20;84.20
49777;DHT22;35673;51.482;7.436;2023-02-28T07:37:13;-0.20;84.30
49777;DHT22;35673;51.482;7.436;2023-02-28T07:39:39;-0.20;84.60
49777;DHT22;35673;51.482;7.436;2023-02-28T07:42:07;-0.20;84.30
49777;DHT22;35673;51.482;7.436;2023-02-28T07:44:35;-0.10;84.50
49777;DHT22;35673;51.482;7.436;2023-02-28T07:47:09;0.00;84.20
49777;DHT22;35673;51.482;7.436;2023-02-28T07:49:37;0.10;83.80
49777;DHT22;35673;51.482;7.436;2023-02-28T07:52:03;0.30;83.60
49777;DHT22;35673;51.482;7.436;2023-02-28T07:54:29;0.40;83.40
49777;DHT22;35673;51.482;7.436;2023-02-28T07:56:54;0.50;83.00
49777;DHT22;35673;51.482;7.436;2023-02-28T07:59:20;0.70;82.50
49777;DHT22;35673;51.482;7.436;2023-02-28T08:01:45;0.70;82.30
49777;DHT22;35673;51.482;7.436;2023-02-28T08:04:11;0.80;81.60
49777;DHT22;35673;51.482;7.436;2023-02-28T08:06:36;0.80;81.30
49777;DHT22;35673;51.482;7.436;2023-02-28T08:09:02;0.70;80.80
49777;DHT22;35673;51.482;7.436;2023-02-28T08:11:27;0.70;81.10
49777;DHT22;35673;51.482;7.436;2023-02-28T08:13:54;0.70;81.30
49777;DHT22;35673;51.482;7.436;2023-02-28T08:16:19;0.70;81.00
49777;DHT22;35673;51.482;7.436;2023-02-28T08:18:48;1.00;81.60
49777;DHT22;35673;51.482;7.436;2023-02-28T08:21:13;1.40;81.90
49777;DHT22;35673;51.482;7.436;2023-02-28T08:23:39;1.70;80.60
49777;DHT22;35673;51.482;7.436;2023-02-28T08:26:04;1.90;78.80
49777;DHT22;35673;51.482;7.436;2023-02-28T08:28:30;1.90;78.00
49777;DHT22;35673;51.482;7.436;2023-02-28T08:30:55;1.90;77.70
49777;DHT22;35673;51.482;7.436;2023-02-28T08:33:21;2.10;77.80
49777;DHT22;35673;51.482;7.436;2023-02-28T08:35:47;2.30;77.40
49777;DHT22;35673;51.482;7.436;2023-02-28T08:38:13;2.80;77.10
49777;DHT22;35673;51.482;7.436;2023-02-28T08:40:38;3.10;76.50
49777;DHT22;35673;51.482;7.436;2023-02-28T08:43:04;3.20;74.70
49777;DHT22;35673;51.482;7.436;2023-02-28T08:45:29;3.40;74.90
49777;DHT22;35673;51.482;7.436;2023-02-28T08:47:55;3.60;74.00
49777;DHT22;35673;51.482;7.436;2023-02-28T08:50:21;3.70;73.60
49777;DHT22;35673;51.482;7.436;2023-02-28T08:52:47;3.90;72.50
49777;DHT22;35673;51.482;7.436;2023-02-28T08:55:12;4.20;72.30
49777;DHT22;35673;51.482;7.436;2023-02-28T08:57:37;4.50;71.90
49777;DHT22;35673;51.482;7.436;2023-02-28T09:00:03;4.80;71.00
49777;DHT22;35673;51.482;7.436;2023-02-28T09:02:30;5.00;69.40
49777;DHT22;35673;51.482;7.436;2023-02-28T09:04:55;5.20;68.80
49777;DHT22;35673;51.482;7.436;2023-02-28T09:07:21;5.30;68.30
49777;DHT22;35673;51.482;7.436;2023-02-28T09:09:46;5.40;67.90
49777;DHT22;35673;51.482;7.436;2023-02-28T09:12:22;5.40;67.10
49777;DHT22;35673;51.482;7.436;2023-02-28T09:14:47;5.20;66.80
49777;DHT22;35673;51.482;7.436;2023-02-28T09:17:13;5.30;66.40
49777;DHT22;35673;51.482;7.436;2023-02-28T09:19:38;5.40;66.20
49777;DHT22;35673;51.482;7.436;2023-02-28T09:22:04;5.40;66.20
49777;DHT22;35673;51.482;7.436;2023-02-28T09:24:29;5.50;65.70
49777;DHT22;35673;51.482;7.436;2023-02-28T09:26:56;5.70;65.10
49777;DHT22;35673;51.482;7.436;2023-02-28T09:29:22;5.70;64.80
49777;DHT22;35673;51.482;7.436;2023-02-28T09:31:47;5.90;64.00
49777;DHT22;35673;51.482;7.436;2023-02-28T09:34:13;6.10;63.50
49777;DHT22;35673;51.482;7.436;2023-02-28T09:36:38;5.90;63.10
49777;DHT22;35673;51.482;7.436;2023-02-28T09:39:04;5.90;63.40
49777;DHT22;35673;51.482;7.436;2023-02-28T09:41:32;5.80;63.80
49777;DHT22;35673;51.482;7.436;2023-02-28T09:44:04;5.90;63.00
49777;DHT22;35673;51.482;7.436;2023-02-28T09:46:37;5.90;62.90
49777;DHT22;35673;51.482;7.436;2023-02-28T09:49:16;5.90;63.40
49777;DHT22;35673;51.482;7.436;2023-02-28T09:54:11;6.00;62.80
49777;DHT22;35673;51.482;7.436;2023-02-28T09:56:39;6.20;61.50
49777;DHT22;35673;51.482;7.436;2023-02-28T10:04:17;5.90;62.10
49777;DHT22;35673;51.482;7.436;2023-02-28T10:06:49;5.70;62.60
49777;DHT22;35673;51.482;7.436;2023-02-28T10:09:25;5.60;62.10
49777;DHT22;35673;51.482;7.436;2023-02-28T10:11:54;5.70;61.50
49777;DHT22;35673;51.482;7.436;2023-02-28T10:14:22;5.90;62.00
49777;DHT22;35673;51.482;7.436;2023-02-28T10:16:53;6.30;61.60
49777;DHT22;35673;51.482;7.436;2023-02-28T10:19:40;6.70;60.40
49777;DHT22;35673;51.482;7.436;2023-02-28T10:22:11;7.00;60.10
49777;DHT22;35673;51.482;7.436;2023-02-28T10:27:12;7.10;58.30
49777;DHT22;35673;51.482;7.436;2023-02-28T10:29:37;7.10;58.70
49777;DHT22;35673;51.482;7.436;2023-02-28T10:32:06;7.30;58.10
49777;DHT22;35673;51.482;7.436;2023-02-28T10:34:33;7.40;57.60
49777;DHT22;35673;51.482;7.436;2023-02-28T10:36:58;7.60;57.50
49777;DHT22;35673;51.482;7.436;2023-02-28T10:39:36;7.60;56.70
49777;DHT22;35673;51.482;7.436;2023-02-28T10:42:03;7.60;56.40
49777;DHT22;35673;51.482;7.436;2023-02-28T10:44:28;7.70;55.80
49777;DHT22;35673;51.482;7.436;2023-02-28T10:46:54;7.90;56.40
49777;DHT22;35673;51.482;7.436;2023-02-28T10:49:21;8.10;54.40
49777;DHT22;35673;51.482;7.436;2023-02-28T10:51:49;7.80;55.50
49777;DHT22;35673;51.482;7.436;2023-02-28T10:54:19;7.20;56.50
49777;DHT22;35673;51.482;7.436;2023-02-28T10:56:45;7.40;56.50
49777;DHT22;35673;51.482;7.436;2023-02-28T11:01:40;7.00;56.20
49777;DHT22;35673;51.482;7.436;2023-02-28T11:06:44;6.70;57.00
49777;DHT22;35673;51.482;7.436;2023-02-28T11:09:23;6.70;56.40
49777;DHT22;35673;51.482;7.436;2023-02-28T11:11:50;6.70;56.70
49777;DHT22;35673;51.482;7.436;2023-02-28T11:14:22;6.90;57.60
49777;DHT22;35673;51.482;7.436;2023-02-28T11:16:48;7.00;55.10
49777;DHT22;35673;51.482;7.436;2023-02-28T11:19:19;6.80;58.20
49777;DHT22;35673;51.482;7.436;2023-02-28T11:21:52;6.70;58.30
49777;DHT22;35673;51.482;7.436;2023-02-28T11:24:22;6.90;58.20
49777;DHT22;35673;51.482;7.436;2023-02-28T11:26:48;6.90;57.60
49777;DHT22;35673;51.482;7.436;2023-02-28T11:31:39;7.90;55.40
49777;DHT22;35673;51.482;7.436;2023-02-28T11:34:21;8.30;55.60
49777;DHT22;35673;51.482;7.436;2023-02-28T11:36:54;8.50;56.00
49777;DHT22;35673;51.482;7.436;2023-02-28T11:39:20;9.10;55.40
49777;DHT22;35673;51.482;7.436;2023-02-28T11:42:29;8.90;54.10
49777;DHT22;35673;51.482;7.436;2023-02-28T11:44:42;8.60;55.90
49777;DHT22;35673;51.482;7.436;2023-02-28T11:49:52;8.80;56.30
49777;DHT22;35673;51.482;7.436;2023-02-28T12:02:50;9.40;51.70
49777;DHT22;35673;51.482;7.436;2023-02-28T12:08:03;8.40;56.00
49777;DHT22;35673;51.482;7.436;2023-02-28T12:11:18;8.10;56.20
49777;DHT22;35673;51.482;7.436;2023-02-28T12:13:34;8.50;55.60
49777;DHT22;35673;51.482;7.436;2023-02-28T12:16:21;9.30;54.50
49777;DHT22;35673;51.482;7.436;2023-02-28T12:18:53;8.90;55.20
49777;DHT22;35673;51.482;7.436;2023-02-28T12:21:28;9.30;56.60
49777;DHT22;35673;51.482;7.436;2023-02-28T12:28:57;10.50;52.20
49777;DHT22;35673;51.482;7.436;2023-02-28T12:31:27;10.20;52.60
49777;DHT22;35673;51.482;7.436;2023-02-28T12:34:02;10.60;52.20
49777;DHT22;35673;51.482;7.436;2023-02-28T12:36:28;11.30;52.10
49777;DHT22;35673;51.482;7.436;2023-02-28T12:38:59;12.00;50.80
49777;DHT22;35673;51.482;7.436;2023-02-28T12:44:08;13.70;49.70
49777;DHT22;35673;51.482;7.436;2023-02-28T12:46:36;14.30;50.30
49777;DHT22;35673;51.482;7.436;2023-02-28T12:49:06;15.10;47.60
49777;DHT22;35673;51.482;7.436;2023-02-28T12:51:33;16.00;46.00
49777;DHT22;35673;51.482;7.436;2023-02-28T12:54:09;17.10;45.70
49777;DHT22;35673;51.482;7.436;2023-02-28T12:56:42;17.40;45.50
49777;DHT22;35673;51.482;7.436;2023-02-28T13:04:53;19.70;41.10
49777;DHT22;35673;51.482;7.436;2023-02-28T13:10:06;16.60;43.60
49777;DHT22;35673;51.482;7.436;2023-02-28T13:12:33;17.60;43.70
49777;DHT22;35673;51.482;7.436;2023-02-28T13:15:06;16.80;42.70
49777;DHT22;35673;51.482;7.436;2023-02-28T13:17:38;17.00;43.70
49777;DHT22;35673;51.482;7.436;2023-02-28T13:20:04;17.00;42.50
49777;DHT22;35673;51.482;7.436;2023-02-28T13:22:47;16.30;43.90
49777;DHT22;35673;51.482;7.436;2023-02-28T13:27:48;16.30;45.00
49777;DHT22;35673;51.482;7.436;2023-02-28T13:35:48;17.20;44.70
49777;DHT22;35673;51.482;7.436;2023-02-28T13:38:32;18.30;45.30
49777;DHT22;35673;51.482;7.436;2023-02-28T13:41:21;18.40;41.90
49777;DHT22;35673;51.482;7.436;2023-02-28T13:46:24;16.30;44.70
49777;DHT22;35673;51.482;7.436;2023-02-28T13:48:49;16.70;46.80
49777;DHT22;35673;51.482;7.436;2023-02-28T13:54:18;16.40;46.20
49777;DHT22;35673;51.482;7.436;2023-02-28T13:56:56;17.50;44.90
49777;DHT22;35673;51.482;7.436;2023-02-28T13:59:44;18.50;42.80
49777;DHT22;35673;51.482;7.436;2023-02-28T14:02:23;18.70;43.00
49777;DHT22;35673;51.482;7.436;2023-02-28T14:04:56;19.30;44.20
49777;DHT22;35673;51.482;7.436;2023-02-28T14:07:25;18.80;43.20
49777;DHT22;35673;51.482;7.436;2023-02-28T14:09:55;19.10;45.00
49777;DHT22;35673;51.482;7.436;2023-02-28T14:17:53;17.00;47.00
49777;DHT22;35673;51.482;7.436;2023-02-28T14:20:20;18.00;46.80
49777;DHT22;35673;51.482;7.436;2023-02-28T14:27:39;18.90;47.00
49777;DHT22;35673;51.482;7.436;2023-02-28T14:32:35;20.30;42.90
49777;DHT22;35673;51.482;7.436;2023-02-28T14:35:12;21.10;40.90
49777;DHT22;35673;51.482;7.436;2023-02-28T14:37:41;21.70;41.30
49777;DHT22;35673;51.482;7.436;2023-02-28T14:40:12;21.70;42.60
49777;DHT22;35673;51.482;7.436;2023-02-28T14:42:39;21.00;42.40
49777;DHT22;35673;51.482;7.436;2023-02-28T14:45:22;21.40;43.60
49777;DHT22;35673;51.482;7.436;2023-02-28T14:47:48;21.60;43.90
49777;DHT22;35673;51.482;7.436;2023-02-28T14:50:18;22.50;40.60
49777;DHT22;35673;51.482;7.436;2023-02-28T14:52:44;23.20;42.10
49777;DHT22;35673;51.482;7.436;2023-02-28T14:55:12;23.70;40.50
49777;DHT22;35673;51.482;7.436;2023-02-28T14:57:40;23.60;43.20
49777;DHT22;35673;51.482;7.436;2023-02-28T15:02:35;24.10;40.80
49777;DHT22;35673;51.482;7.436;2023-02-28T15:05:10;25.30;38.40
49777;DHT22;35673;51.482;7.436;2023-02-28T15:07:42;25.90;37.50
49777;DHT22;35673;51.482;7.436;2023-02-28T15:10:18;25.50;38.70
49777;DHT22;35673;51.482;7.436;2023-02-28T15:12:47;24.30;41.70
49777;DHT22;35673;51.482;7.436;2023-02-28T15:15:15;24.30;40.60
49777;DHT22;35673;51.482;7.436;2023-02-28T15:17:41;24.80;38.10
49777;DHT22;35673;51.482;7.436;2023-02-28T15:20:10;24.80;38.10
49777;DHT22;35673;51.482;7.436;2023-02-28T15:22:36;25.10;37.30
49777;DHT22;35673;51.482;7.436;2023-02-28T15:25:03;25.00;38.70
49777;DHT22;35673;51.482;7.436;2023-02-28T15:27:32;25.00;38.10
49777;DHT22;35673;51.482;7.436;2023-02-28T15:29:59;25.20;38.30
49777;DHT22;35673;51.482;7.436;2023-02-28T15:32:29;25.70;38.30
49777;DHT22;35673;51.482;7.436;2023-02-28T15:34:55;25.60;35.40
49777;DHT22;35673;51.482;7.436;2023-02-28T15:42:36;24.40;38.70
49777;DHT22;35673;51.482;7.436;2023-02-28T15:45:02;23.90;40.20
49777;DHT22;35673;51.482;7.436;2023-02-28T15:47:27;23.40;39.90
49777;DHT22;35673;51.482;7.436;2023-02-28T15:49:56;23.10;41.80
49777;DHT22;35673;51.482;7.436;2023-02-28T15:52:24;23.00;40.80
49777;DHT22;35673;51.482;7.436;2023-02-28T15:54:51;22.80;39.10
49777;DHT22;35673;51.482;7.436;2023-02-28T15:57:20;22.50;39.90
49777;DHT22;35673;51.482;7.436;2023-02-28T15:59:51;22.40;40.90
49777;DHT22;35673;51.482;7.436;2023-02-28T16:02:19;20.90;41.20
49777;DHT22;35673;51.482;7.436;2023-02-28T16:07:41;18.80;47.20
49777;DHT22;35673;51.482;7.436;2023-02-28T16:10:08;17.50;45.90
49777;DHT22;35673;51.482;7.436;2023-02-28T16:12:36;17.20;47.60
49777;DHT22;35673;51.482;7.436;2023-02-28T16:15:03;16.00;46.60
49777;DHT22;35673;51.482;7.436;2023-02-28T16:17:33;14.90;47.10
49777;DHT22;35673;51.482;7.436;2023-02-28T16:19:58;14.10;50.50
49777;DHT22;35673;51.482;7.436;2023-02-28T16:22:24;13.20;49.40
49777;DHT22;35673;51.482;7.436;2023-02-28T16:24:49;12.60;51.90
49777;DHT22;35673;51.482;7.436;2023-02-28T16:27:19;12.10;51.70
49777;DHT22;35673;51.482;7.436;2023-02-28T16:29:45;11.70;51.80
49777;DHT22;35673;51.482;7.436;2023-02-28T16:32:12;11.00;55.50
49777;DHT22;35673;51.482;7.436;2023-02-28T16:34:37;10.30;56.60
49777;DHT22;35673;51.482;7.436;2023-02-28T16:37:04;9.60;55.60
49777;DHT22;35673;51.482;7.436;2023-02-28T16:39:30;9.40;55.00
49777;DHT22;35673;51.482;7.436;2023-02-28T16:41:55;9.30;57.40
49777;DHT22;35673;51.482;7.436;2023-02-28T16:44:26;9.10;55.20
49777;DHT22;35673;51.482;7.436;2023-02-28T16:46:53;8.90;57.90
49777;DHT22;35673;51.482;7.436;2023-02-28T16:49:18;8.70;56.30
49777;DHT22;35673;51.482;7.436;2023-02-28T16:51:43;8.70;55.40
49777;DHT22;35673;51.482;7.436;2023-02-28T16:54:09;8.60;55.30
49777;DHT22;35673;51.482;7.436;2023-02-28T16:56:35;8.80;55.50
49777;DHT22;35673;51.482;7.436;2023-02-28T16:59:01;8.60;55.60
49777;DHT22;35673;51.482;7.436;2023-02-28T17:01:26;8.50;55.30
49777;DHT22;35673;51.482;7.436;2023-02-28T17:03:52;8.30;55.60
49777;DHT22;35673;51.482;7.436;2023-02-28T17:06:36;8.10;55.70
49777;DHT22;35673;51.482;7.436;2023-02-28T17:09:02;7.90;56.10
49777;DHT22;35673;51.482;7.436;2023-02-28T17:11:27;7.80;56.40
49777;DHT22;35673;51.482;7.436;2023-02-28T17:13:53;7.60;56.40
49777;DHT22;35673;51.482;7.436;2023-02-28T17:18:44;7.40;57.20
49777;DHT22;35673;51.482;7.436;2023-02-28T17:21:12;7.40;57.70
49777;DHT22;35673;51.482;7.436;2023-02-28T17:23:38;7.30;57.40
49777;DHT22;35673;51.482;7.436;2023-02-28T17:26:03;7.20;57.90
49777;DHT22;35673;51.482;7.436;2023-02-28T17:28:31;7.30;58.20
49777;DHT22;35673;51.482;7.436;2023-02-28T17:30:57;7.40;57.90
49777;DHT22;35673;51.482;7.436;2023-02-28T17:33:22;7.40;57.90
49777;DHT22;35673;51.482;7.436;2023-02-28T17:35:48;7.10;58.20
49777;DHT22;35673;51.482;7.436;2023-02-28T17:38:15;7.20;59.70
49777;DHT22;35673;51.482;7.436;2023-02-28T17:40:41;7.00;59.30
49777;DHT22;35673;51.482;7.436;2023-02-28T17:43:06;7.10;60.70
49777;DHT22;35673;51.482;7.436;2023-02-28T17:45:31;6.90;59.90
49777;DHT22;35673;51.482;7.436;2023-02-28T17:47:57;6.90;60.60